createdAt,value
2018-08-09T00:00:22.756Z,20.51
2018-08-09T00:01:22.533Z,20.50
2018-08-09T00:02:22.507Z,20.50
2018-08-09T00:03:22.486Z,20.51
2018-08-09T00:04:22.463Z,20.56
2018-08-09T00:05:22.439Z,20.50
2018-08-09T00:06:22.413Z,20.53
2018-08-09T00:07:22.392Z,20.60
2018-08-09T00:08:22.369Z,20.61
2018-08-09T00:09:22.352Z,20.64
2018-08-09T00:10:22.329Z,20.60
2018-08-09T00:11:22.305Z,20.54
2018-08-09T00:12:22.277Z,20.57
2018-08-09T00:13:22.254Z,20.68
2018-08-09T00:14:22.230Z,20.63
2018-08-09T00:15:22.208Z,20.64
2018-08-09T00:16:22.183Z,20.69
2018-08-09T00:17:22.163Z,20.64
2018-08-09T00:18:22.140Z,20.66
2018-08-09T00:19:22.117Z,20.66
2018-08-09T00:20:22.093Z,20.66
2018-08-09T00:21:22.069Z,20.57
2018-08-09T00:22:22.047Z,20.54
2018-08-09T00:23:22.023Z,20.60
2018-08-09T00:24:22.003Z,20.50
2018-08-09T00:25:21.980Z,20.61
2018-08-09T00:26:21.954Z,20.51
2018-08-09T00:27:21.932Z,20.61
2018-08-09T00:28:21.909Z,20.58
2018-08-09T00:29:21.886Z,20.56
2018-08-09T00:30:21.863Z,20.50
2018-08-09T00:31:21.839Z,20.44
2018-08-09T00:32:21.816Z,20.50
2018-08-09T00:33:21.794Z,20.50
2018-08-09T00:34:21.772Z,20.57
2018-08-09T00:35:21.746Z,20.61
2018-08-09T00:36:21.725Z,20.66
2018-08-09T00:37:21.702Z,20.58
2018-08-09T00:38:21.679Z,20.57
2018-08-09T00:39:21.655Z,20.57
2018-08-09T00:40:21.639Z,20.50
2018-08-09T00:41:21.610Z,20.48
2018-08-09T00:42:21.585Z,20.35
2018-08-09T00:43:21.562Z,20.37
2018-08-09T00:44:21.540Z,20.38
2018-08-09T00:45:21.517Z,20.50
2018-08-09T00:46:21.493Z,20.50
2018-08-09T00:47:21.673Z,20.60
2018-08-09T00:48:21.450Z,20.57
2018-08-09T00:49:21.429Z,20.53
2018-08-09T00:50:21.400Z,20.54
2018-08-09T00:51:21.384Z,20.51
2018-08-09T00:52:21.358Z,20.46
2018-08-09T00:53:21.332Z,20.51
2018-08-09T00:54:21.309Z,20.33
2018-08-09T00:55:21.286Z,20.42
2018-08-09T00:56:21.264Z,20.38
2018-08-09T00:57:21.242Z,20.41
2018-08-09T00:58:21.218Z,20.38
2018-08-09T00:59:21.193Z,20.27
2018-08-09T01:00:21.174Z,20.35
2018-08-09T01:01:21.154Z,20.54
2018-08-09T01:02:21.124Z,20.44
2018-08-09T01:03:21.100Z,20.40
2018-08-09T01:04:21.078Z,20.40
2018-08-09T01:05:21.056Z,20.35
2018-08-09T01:06:21.038Z,20.46
2018-08-09T01:07:21.008Z,20.50
2018-08-09T01:08:20.985Z,20.56
2018-08-09T01:09:20.963Z,20.57
2018-08-09T01:10:20.941Z,20.35
2018-08-09T01:11:20.922Z,20.40
2018-08-09T01:12:20.896Z,20.40
2018-08-09T01:13:20.874Z,20.35
2018-08-09T01:14:20.849Z,20.51
2018-08-09T01:15:20.823Z,20.50
2018-08-09T01:16:20.800Z,20.40
2018-08-09T01:17:20.779Z,20.35
2018-08-09T01:18:20.754Z,20.40
2018-08-09T01:19:20.731Z,20.35
2018-08-09T01:20:20.709Z,20.35
2018-08-09T01:21:23.510Z,20.31
2018-08-09T01:22:20.661Z,20.42
2018-08-09T01:23:20.884Z,20.51
2018-08-09T01:24:20.622Z,20.37
2018-08-09T01:25:20.795Z,20.34
2018-08-09T01:26:20.773Z,20.33
2018-08-09T01:27:20.549Z,20.33
2018-08-09T01:28:20.523Z,20.25
2018-08-09T01:29:20.499Z,20.30
2018-08-09T01:30:20.474Z,20.26
2018-08-09T01:31:20.453Z,20.38
2018-08-09T01:32:20.430Z,20.37
2018-08-09T01:33:20.407Z,20.31
2018-08-09T01:34:20.588Z,20.33
2018-08-09T01:35:20.362Z,20.30
2018-08-09T01:36:20.341Z,20.22
2018-08-09T01:37:20.315Z,20.30
2018-08-09T01:38:20.291Z,20.27
2018-08-09T01:39:20.273Z,20.31
2018-08-09T01:40:20.245Z,20.33
2018-08-09T01:41:20.221Z,20.34
2018-08-09T01:42:20.197Z,20.35
2018-08-09T01:43:20.174Z,20.38
2018-08-09T01:44:20.158Z,20.31
2018-08-09T01:45:20.129Z,20.25
2018-08-09T01:46:20.105Z,20.30
2018-08-09T01:47:20.082Z,20.33
2018-08-09T01:48:20.063Z,20.34
2018-08-09T01:49:20.036Z,20.31
2018-08-09T01:50:20.011Z,20.30
2018-08-09T01:51:19.993Z,20.35
2018-08-09T01:52:19.965Z,20.25
2018-08-09T01:53:19.943Z,20.35
2018-08-09T01:54:19.918Z,20.19
2018-08-09T01:55:19.894Z,20.08
2018-08-09T01:56:19.872Z,20.02
2018-08-09T01:57:19.848Z,20.10
2018-08-09T01:58:19.825Z,20.10
2018-08-09T01:59:19.803Z,20.04
2018-08-09T02:00:19.783Z,20.07
2018-08-09T02:01:19.763Z,20.05
2018-08-09T02:02:19.732Z,20.10
2018-08-09T02:03:19.713Z,20.22
2018-08-09T02:04:19.690Z,20.19
2018-08-09T02:05:19.664Z,20.20
2018-08-09T02:06:19.644Z,20.19
2018-08-09T02:07:19.620Z,20.19
2018-08-09T02:08:19.592Z,20.31
2018-08-09T02:09:19.572Z,20.38
2018-08-09T02:10:19.551Z,20.30
2018-08-09T02:11:19.528Z,20.25
2018-08-09T02:12:19.508Z,20.30
2018-08-09T02:13:19.477Z,20.27
2018-08-09T02:14:19.453Z,20.27
2018-08-09T02:15:19.442Z,20.25
2018-08-09T02:16:19.408Z,20.19
2018-08-09T02:17:19.385Z,20.20
2018-08-09T02:18:19.361Z,20.20
2018-08-09T02:19:19.337Z,20.12
2018-08-09T02:20:19.314Z,20.15
2018-08-09T02:21:19.296Z,20.05
2018-08-09T02:22:19.275Z,20.04
2018-08-09T02:23:19.245Z,20.04
2018-08-09T02:24:19.220Z,20.04
2018-08-09T02:25:19.206Z,20.08
2018-08-09T02:26:19.174Z,19.98
2018-08-09T02:27:19.150Z,19.97
2018-08-09T02:28:19.129Z,20.01
2018-08-09T02:29:19.106Z,19.89
2018-08-09T02:30:19.084Z,19.94
2018-08-09T02:31:19.060Z,20.01
2018-08-09T02:32:19.037Z,20.04
2018-08-09T02:33:19.013Z,19.98
2018-08-09T02:34:18.996Z,19.95
2018-08-09T02:35:18.964Z,20.01
2018-08-09T02:36:18.941Z,19.92
2018-08-09T02:37:18.920Z,19.86
2018-08-09T02:38:18.893Z,19.75
2018-08-09T02:39:18.880Z,19.79
2018-08-09T02:40:18.847Z,19.80
2018-08-09T02:41:18.826Z,19.86
2018-08-09T02:42:18.801Z,19.90
2018-08-09T02:43:18.777Z,19.94
2018-08-09T02:44:18.755Z,19.97
2018-08-09T02:45:18.733Z,20.00
2018-08-09T02:46:18.708Z,20.05
2018-08-09T02:47:18.686Z,20.12
2018-08-09T02:48:18.663Z,20.15
2018-08-09T02:49:18.638Z,20.05
2018-08-09T02:50:18.620Z,20.04
2018-08-09T02:51:18.597Z,19.97
2018-08-09T02:52:18.569Z,20.02
2018-08-09T02:53:18.545Z,19.89
2018-08-09T02:54:18.522Z,20.00
2018-08-09T02:55:18.499Z,20.01
2018-08-09T02:56:18.474Z,19.97
2018-08-09T02:57:18.452Z,19.94
2018-08-09T02:58:18.430Z,20.00
2018-08-09T02:59:18.404Z,20.05
2018-08-09T03:00:18.583Z,20.04
2018-08-09T03:01:18.359Z,20.05
2018-08-09T03:02:18.335Z,20.01
2018-08-09T03:03:18.311Z,19.97
2018-08-09T03:04:18.288Z,19.98
2018-08-09T03:05:18.271Z,19.97
2018-08-09T03:06:18.242Z,19.85
2018-08-09T03:07:18.222Z,19.79
2018-08-09T03:08:18.194Z,19.76
2018-08-09T03:09:18.175Z,19.78
2018-08-09T03:10:18.156Z,19.83
2018-08-09T03:11:18.123Z,19.95
2018-08-09T03:12:18.101Z,19.94
2018-08-09T03:13:18.082Z,19.94
2018-08-09T03:14:18.055Z,19.98
2018-08-09T03:15:18.052Z,19.98
2018-08-09T03:16:18.008Z,19.95
2018-08-09T03:17:18.054Z,19.95
2018-08-09T03:18:17.960Z,20.02
2018-08-09T03:19:17.938Z,19.95
2018-08-09T03:20:17.913Z,19.94
2018-08-09T03:21:17.893Z,20.01
2018-08-09T03:22:17.866Z,19.86
2018-08-09T03:23:17.845Z,19.85
2018-08-09T03:24:17.850Z,19.90
2018-08-09T03:25:17.800Z,19.94
2018-08-09T03:26:17.775Z,19.90
2018-08-09T03:27:17.757Z,19.98
2018-08-09T03:28:17.726Z,19.85
2018-08-09T03:29:17.702Z,19.86
2018-08-09T03:30:17.678Z,19.76
2018-08-09T03:31:17.857Z,19.94
2018-08-09T03:32:17.631Z,19.90
2018-08-09T03:33:17.608Z,19.98
2018-08-09T03:34:17.587Z,19.87
2018-08-09T03:35:17.564Z,19.76
2018-08-09T03:36:17.538Z,19.85
2018-08-09T03:37:17.513Z,19.60
2018-08-09T03:38:17.490Z,19.64
2018-08-09T03:39:17.467Z,19.60
2018-08-09T03:40:17.449Z,19.55
2018-08-09T03:41:17.421Z,19.52
2018-08-09T03:42:17.397Z,19.50
2018-08-09T03:43:17.378Z,19.47
2018-08-09T03:44:17.350Z,19.46
2018-08-09T03:45:17.334Z,19.45
2018-08-09T03:46:17.304Z,19.32
2018-08-09T03:47:17.279Z,19.43
2018-08-09T03:48:17.257Z,19.25
2018-08-09T03:49:17.235Z,19.34
2018-08-09T03:50:17.209Z,19.35
2018-08-09T03:51:17.185Z,19.27
2018-08-09T03:52:17.162Z,19.24
2018-08-09T03:53:17.139Z,19.30
2018-08-09T03:54:17.117Z,19.21
2018-08-09T03:55:17.093Z,19.25
2018-08-09T03:56:59.425Z,19.28
2018-08-09T03:57:59.196Z,19.31
2018-08-09T03:58:59.173Z,19.35
2018-08-09T03:59:59.150Z,19.38
2018-08-09T04:00:59.125Z,19.40
2018-08-09T04:01:59.117Z,19.39
2018-08-09T04:02:59.084Z,19.39
2018-08-09T04:03:59.057Z,19.32
2018-08-09T04:04:59.034Z,19.38
2018-08-09T04:05:59.009Z,19.35
2018-08-09T04:06:58.984Z,19.30
2018-08-09T04:07:58.961Z,19.32
2018-08-09T04:08:58.938Z,19.30
2018-08-09T04:09:59.122Z,19.28
2018-08-09T04:10:58.891Z,19.28
2018-08-09T04:11:58.949Z,19.38
2018-08-09T04:12:58.844Z,19.23
2018-08-09T04:13:58.819Z,19.31
2018-08-09T04:14:58.795Z,19.31
2018-08-09T04:15:58.773Z,19.52
2018-08-09T04:16:58.754Z,19.52
2018-08-09T04:17:58.752Z,19.52
2018-08-09T04:18:58.701Z,19.47
2018-08-09T04:19:58.678Z,19.53
2018-08-09T04:20:58.859Z,19.58
2018-08-09T04:21:58.635Z,19.55
2018-08-09T04:22:58.809Z,19.70
2018-08-09T04:23:58.584Z,19.62
2018-08-09T04:24:58.560Z,19.64
2018-08-09T04:25:58.540Z,19.58
2018-08-09T04:26:58.513Z,19.61
2018-08-09T04:27:58.489Z,19.72
2018-08-09T04:28:58.467Z,19.80
2018-08-09T04:29:58.444Z,19.86
2018-08-09T04:30:58.421Z,19.89
2018-08-09T04:31:58.397Z,19.97
2018-08-09T04:32:58.374Z,19.97
2018-08-09T04:33:58.349Z,20.08
2018-08-09T04:34:58.326Z,20.23
2018-08-09T04:35:58.305Z,20.30
2018-08-09T04:36:58.280Z,20.37
2018-08-09T04:37:58.309Z,20.46
2018-08-09T04:38:58.247Z,20.53
2018-08-09T04:39:58.210Z,20.57
2018-08-09T04:40:58.187Z,20.63
2018-08-09T04:41:58.366Z,20.71
2018-08-09T04:42:58.141Z,20.73
2018-08-09T04:43:58.124Z,20.85
2018-08-09T04:44:58.298Z,20.88
2018-08-09T04:45:58.275Z,21.00
2018-08-09T04:46:58.050Z,21.05
2018-08-09T04:47:58.034Z,21.19
2018-08-09T04:48:58.003Z,21.24
2018-08-09T04:49:57.980Z,21.31
2018-08-09T04:50:57.958Z,21.45
2018-08-09T04:51:57.935Z,21.42
2018-08-09T04:52:57.913Z,21.45
2018-08-09T04:53:57.890Z,21.52
2018-08-09T04:54:57.869Z,21.52
2018-08-09T04:55:57.845Z,21.46
2018-08-09T04:56:57.823Z,21.46
2018-08-09T04:57:57.803Z,21.31
2018-08-09T04:58:57.778Z,21.48
2018-08-09T04:59:57.758Z,21.52
2018-08-09T05:00:57.734Z,21.53
2018-08-09T05:01:57.711Z,21.53
2018-08-09T05:02:57.689Z,21.64
2018-08-09T05:03:57.671Z,21.49
2018-08-09T05:04:57.645Z,21.61
2018-08-09T05:05:57.623Z,21.66
2018-08-09T05:06:57.600Z,21.75
2018-08-09T05:07:57.581Z,21.96
2018-08-09T05:08:57.556Z,21.96
2018-08-09T05:09:57.736Z,22.05
2018-08-09T05:10:57.513Z,21.77
2018-08-09T05:11:57.490Z,21.81
2018-08-09T05:12:57.469Z,21.74
2018-08-09T05:13:57.446Z,21.75
2018-08-09T05:14:57.424Z,21.96
2018-08-09T05:15:57.462Z,21.81
2018-08-09T05:16:57.380Z,21.86
2018-08-09T05:18:00.183Z,22.02
2018-08-09T05:18:57.337Z,22.06
2018-08-09T05:19:57.316Z,22.23
2018-08-09T05:20:57.295Z,22.01
2018-08-09T05:21:57.476Z,21.89
2018-08-09T05:22:57.250Z,22.11
2018-08-09T05:23:57.229Z,22.36
2018-08-09T05:24:57.208Z,22.52
2018-08-09T05:25:57.189Z,22.59
2018-08-09T05:26:57.165Z,22.36
2018-08-09T05:27:57.344Z,22.57
2018-08-09T05:28:57.125Z,22.46
2018-08-09T05:29:57.100Z,22.48
2018-08-09T05:30:57.081Z,22.46
2018-08-09T05:31:57.064Z,22.33
2018-08-09T05:32:57.038Z,22.51
2018-08-09T05:33:57.217Z,22.56
2018-08-09T05:34:56.994Z,22.89
2018-08-09T05:35:57.177Z,22.97
2018-08-09T05:36:56.952Z,23.11
2018-08-09T05:37:56.930Z,23.19
2018-08-09T05:38:56.909Z,23.41
2018-08-09T05:39:56.889Z,23.22
2018-08-09T05:40:56.868Z,23.44
2018-08-09T05:41:56.855Z,23.21
2018-08-09T05:42:56.830Z,23.22
2018-08-09T05:43:56.806Z,23.37
2018-08-09T05:44:56.790Z,23.44
2018-08-09T05:45:56.966Z,23.57
2018-08-09T05:46:56.945Z,23.93
2018-08-09T05:47:56.925Z,24.16
2018-08-09T05:48:56.702Z,23.81
2018-08-09T05:49:56.681Z,22.99
2018-08-09T05:50:56.671Z,22.91
2018-08-09T05:51:56.641Z,22.72
2018-08-09T05:52:56.777Z,22.30
2018-08-09T05:53:56.601Z,21.96
2018-08-09T05:54:56.579Z,21.56
2018-08-09T05:55:56.562Z,21.48
2018-08-09T05:56:56.741Z,21.43
2018-08-09T05:57:56.517Z,21.83
2018-08-09T05:58:56.500Z,22.45
2018-08-09T05:59:56.681Z,22.89
2018-08-09T06:00:56.661Z,23.63
2018-08-09T06:01:56.435Z,24.05
2018-08-09T06:02:56.415Z,24.33
2018-08-09T06:03:56.394Z,24.46
2018-08-09T06:04:56.374Z,24.23
2018-08-09T06:05:56.555Z,23.84
2018-08-09T06:06:56.337Z,23.79
2018-08-09T06:07:56.515Z,23.75
2018-08-09T06:08:56.293Z,23.74
2018-08-09T06:09:56.275Z,23.44
2018-08-09T06:10:56.253Z,23.62
2018-08-09T06:11:56.233Z,23.63
2018-08-09T06:12:56.217Z,23.47
2018-08-09T06:13:56.192Z,23.00
2018-08-09T06:14:56.171Z,22.84
2018-08-09T06:15:56.156Z,22.75
2018-08-09T06:16:56.143Z,23.04
2018-08-09T06:17:56.124Z,23.14
2018-08-09T06:18:56.146Z,22.84
2018-08-09T06:19:56.078Z,22.66
2018-08-09T06:20:56.054Z,22.96
2018-08-09T06:21:56.038Z,23.38
2018-08-09T06:27:51.297Z,23.38
2018-08-09T06:28:51.082Z,23.86
2018-08-09T06:29:51.053Z,24.21
2018-08-09T06:30:51.034Z,24.33
2018-08-09T06:31:51.013Z,24.31
2018-08-09T06:32:50.994Z,24.05
2018-08-09T06:33:50.975Z,23.96
2018-08-09T06:34:50.953Z,24.44
2018-08-09T06:35:50.934Z,24.98
2018-08-09T06:36:50.919Z,25.42
2018-08-09T06:37:50.894Z,24.89
2018-08-09T06:39:33.437Z,25.54
2018-08-09T06:41:15.368Z,25.81
2018-08-09T06:42:15.348Z,26.13
2018-08-09T06:43:15.126Z,25.60
2018-08-09T06:44:18.946Z,25.79
2018-08-09T06:46:15.271Z,26.24
2018-08-09T06:47:15.051Z,26.21
2018-08-09T06:48:15.234Z,25.56
2018-08-09T06:49:15.223Z,25.23
2018-08-09T06:50:14.995Z,25.09
2018-08-09T06:51:14.976Z,24.87
2018-08-09T06:52:14.957Z,24.59
2018-08-09T06:53:14.940Z,24.61
2018-08-09T06:59:52.369Z,24.00
2018-08-09T07:00:52.347Z,24.16
2018-08-09T07:01:52.126Z,24.15
2018-08-09T07:02:52.312Z,24.52
2018-08-09T07:03:52.089Z,25.02
2018-08-09T07:04:52.089Z,25.59
2018-08-09T07:05:52.251Z,25.98
2018-08-09T07:06:52.038Z,26.27
2018-08-09T07:07:52.012Z,26.34
2018-08-09T07:08:51.993Z,26.32
2018-08-09T07:09:52.177Z,26.56
2018-08-09T07:10:52.163Z,26.93
2018-08-09T07:11:51.944Z,27.39
2018-08-09T07:12:52.209Z,27.59
2018-08-09T07:13:52.105Z,27.09
2018-08-09T07:14:52.094Z,27.01
2018-08-09T07:15:51.868Z,27.02
2018-08-09T07:16:51.850Z,27.09
2018-08-09T07:17:51.831Z,27.01
2018-08-09T07:18:51.816Z,26.76
2018-08-09T07:20:34.160Z,26.09
2018-08-09T07:21:34.145Z,25.66
2018-08-09T07:22:34.128Z,25.81
2018-08-09T07:23:34.115Z,25.66
2018-08-09T07:24:33.889Z,25.53
2018-08-09T07:25:34.082Z,25.22
2018-08-09T07:26:33.906Z,25.23
2018-08-09T07:27:33.837Z,25.42
2018-08-09T07:28:33.831Z,25.19
2018-08-09T07:29:33.805Z,25.07
2018-08-09T07:30:33.791Z,25.05
2018-08-09T07:31:36.621Z,25.26
2018-08-09T07:32:33.753Z,25.07
2018-08-09T07:33:33.734Z,25.07
2018-08-09T07:34:33.718Z,24.93
2018-08-09T07:35:33.702Z,25.12
2018-08-09T07:36:33.692Z,24.97
2018-08-09T07:37:33.868Z,25.19
2018-08-09T07:38:33.646Z,24.75
2018-08-09T07:39:33.771Z,24.60
2018-08-09T07:40:33.618Z,24.41
2018-08-09T07:41:33.599Z,24.45
2018-08-09T07:42:33.579Z,24.14
2018-08-09T07:43:33.560Z,24.09
2018-08-09T07:44:33.542Z,23.89
2018-08-09T07:45:33.528Z,23.72
2018-08-09T07:46:33.506Z,23.56
2018-08-09T07:47:33.489Z,23.74
2018-08-09T07:48:33.482Z,23.93
2018-08-09T07:49:33.451Z,24.00
2018-08-09T07:50:33.432Z,24.04
2018-08-09T07:51:33.435Z,24.18
2018-08-09T07:52:33.396Z,24.24
2018-08-09T07:53:33.377Z,24.19
2018-08-09T07:54:33.360Z,24.45
2018-08-09T07:55:33.342Z,24.30
2018-08-09T07:56:33.322Z,24.56
2018-08-09T07:57:33.303Z,24.60
2018-08-09T07:58:33.288Z,24.84
2018-08-09T07:59:33.266Z,24.89
2018-08-09T08:00:33.248Z,24.93
2018-08-09T08:01:33.229Z,24.83
2018-08-09T08:02:33.209Z,24.80
2018-08-09T08:03:33.193Z,24.64
2018-08-09T08:04:33.177Z,25.31
2018-08-09T08:05:33.155Z,26.11
2018-08-09T08:06:33.139Z,25.98
2018-08-09T08:07:33.122Z,25.81
2018-08-09T08:08:33.244Z,25.98
2018-08-09T08:09:33.082Z,25.89
2018-08-09T08:10:33.064Z,25.90
2018-08-09T08:11:33.048Z,26.04
2018-08-09T08:12:33.029Z,26.47
2018-08-09T08:13:33.011Z,26.94
2018-08-09T08:14:33.202Z,27.35
2018-08-09T08:15:33.185Z,27.84
2018-08-09T08:16:32.961Z,27.33
2018-08-09T08:17:32.943Z,26.93
2018-08-09T08:18:33.129Z,26.53
2018-08-09T08:19:32.913Z,26.46
2018-08-09T08:20:32.944Z,26.19
2018-08-09T08:21:33.079Z,26.57
2018-08-09T08:22:32.863Z,27.28
2018-08-09T08:23:33.143Z,28.23
2018-08-09T08:24:33.028Z,28.05
2018-08-09T08:25:33.016Z,28.05
2018-08-09T08:26:32.998Z,28.08
2018-08-09T08:27:32.980Z,28.17
2018-08-09T08:28:33.371Z,28.25
2018-08-09T08:29:32.949Z,28.58
2018-08-09T08:30:32.933Z,29.07
2018-08-09T08:31:32.918Z,29.29
2018-08-09T08:32:32.910Z,29.99
2018-08-09T08:33:32.888Z,30.18
2018-08-09T08:34:33.178Z,30.08
2018-08-09T08:35:32.653Z,29.39
2018-08-09T08:36:32.843Z,29.21
2018-08-09T08:37:32.827Z,29.64
2018-08-09T08:38:32.812Z,29.74
2018-08-09T08:39:32.801Z,30.13
2018-08-09T08:41:14.944Z,29.88
2018-08-09T08:44:21.410Z,29.05
2018-08-09T08:45:21.395Z,29.02
2018-08-09T08:46:21.380Z,29.95
2018-08-09T08:47:21.204Z,29.51
2018-08-09T08:48:21.351Z,29.84
2018-08-09T08:49:21.337Z,29.81
2018-08-09T08:50:21.325Z,29.55
2018-08-09T08:51:21.109Z,29.23
2018-08-09T08:52:21.298Z,29.66
2018-08-09T08:53:21.174Z,29.89
2018-08-09T08:54:21.074Z,29.76
2018-08-09T08:56:03.420Z,30.01
2018-08-09T08:57:45.564Z,29.35
2018-08-09T08:58:45.551Z,29.47
2018-08-09T08:59:45.537Z,29.51
2018-08-09T09:01:27.687Z,29.47
2018-08-09T09:02:27.672Z,29.62
2018-08-09T09:03:27.660Z,29.67
2018-08-09T09:04:27.740Z,29.89
2018-08-09T09:06:09.797Z,29.64
2018-08-09T09:07:09.981Z,29.67
2018-08-09T09:08:09.780Z,29.85
2018-08-09T09:11:16.537Z,29.91
2018-08-09T09:12:16.227Z,29.67
2018-08-09T09:13:16.012Z,29.57
2018-08-09T09:14:16.199Z,29.33
2018-08-09T09:15:16.192Z,29.25
2018-08-09T09:20:29.149Z,28.73
2018-08-09T09:21:28.921Z,29.45
2018-08-09T09:22:28.911Z,29.69
2018-08-09T09:23:28.899Z,30.40
2018-08-09T09:24:28.882Z,30.73
2018-08-09T09:25:28.868Z,30.78
2018-08-09T09:26:29.206Z,30.26
2018-08-09T09:27:31.667Z,30.54
2018-08-09T09:34:06.572Z,30.54
2018-08-09T09:35:06.175Z,30.64
2018-08-09T09:36:06.093Z,31.40
2018-08-09T09:43:25.730Z,31.91
2018-08-09T09:44:25.517Z,31.72
2018-08-09T09:49:38.683Z,32.78
2018-08-09T09:50:38.661Z,31.90
2018-08-09T09:51:38.446Z,31.65
2018-08-09T09:52:38.640Z,31.30
2018-08-09T09:53:41.246Z,31.13
2018-08-09T09:54:38.409Z,31.46
2018-08-09T10:22:23.649Z,30.68
2018-08-09T10:24:45.032Z,30.42
2018-08-09T10:25:44.816Z,30.97
2018-08-09T10:28:09.322Z,31.62
2018-08-09T10:29:09.106Z,31.60
2018-08-09T10:30:09.097Z,31.79
2018-08-09T10:31:09.081Z,32.06
2018-08-09T10:32:09.066Z,31.59
2018-08-09T10:33:09.055Z,32.07
2018-08-09T10:34:09.045Z,32.59
2018-08-09T10:35:09.030Z,31.53
2018-08-09T10:36:09.020Z,31.12
2018-08-09T10:37:09.005Z,31.60
2018-08-09T10:38:08.993Z,31.52
2018-08-09T10:39:08.982Z,31.34
2018-08-09T10:40:09.173Z,31.28
2018-08-09T10:41:08.957Z,31.49
2018-08-09T10:42:08.946Z,31.74
2018-08-09T10:43:08.934Z,31.46
2018-08-09T10:44:08.922Z,31.09
2018-08-09T10:45:08.910Z,31.07
2018-08-09T10:46:08.900Z,31.12
2018-08-09T10:47:08.886Z,30.93
2018-08-09T10:48:09.078Z,30.68
2018-08-09T10:49:08.862Z,30.64
2018-08-09T10:50:08.849Z,30.67
2018-08-09T10:51:08.840Z,30.57
2018-08-09T10:52:08.825Z,30.49
2018-08-09T10:53:09.016Z,29.99
2018-08-09T10:54:08.803Z,29.60
2018-08-09T10:55:08.787Z,29.48
2018-08-09T10:56:08.976Z,29.42
2018-08-09T10:57:51.126Z,29.32
2018-08-09T10:58:51.115Z,29.23
2018-08-09T10:59:51.096Z,29.08
2018-08-09T11:00:51.083Z,29.21
2018-08-09T11:01:51.170Z,29.08
2018-08-09T11:02:54.283Z,28.79
2018-08-09T11:03:53.866Z,28.65
2018-08-09T11:04:53.648Z,28.83
2018-08-09T11:05:51.017Z,28.87
2018-08-09T11:06:50.999Z,29.21
2018-08-09T11:07:50.985Z,29.32
2018-08-09T11:08:50.974Z,29.62
2018-08-09T11:09:50.753Z,29.70
2018-08-09T11:10:50.739Z,29.92
2018-08-09T11:11:50.727Z,30.03
2018-08-09T11:12:50.912Z,30.25
2018-08-09T11:13:51.198Z,29.94
2018-08-09T11:14:50.883Z,29.84
2018-08-09T11:15:50.873Z,29.97
2018-08-09T11:16:50.867Z,30.04
2018-08-09T11:17:50.839Z,30.34
2018-08-09T11:18:50.826Z,30.00
2018-08-09T11:20:32.970Z,29.70
2018-08-09T11:21:32.955Z,29.66
2018-08-09T11:24:39.415Z,29.54
2018-08-09T11:25:39.416Z,29.26
2018-08-09T11:26:39.385Z,29.11
2018-08-09T11:27:39.378Z,28.79
2018-08-09T11:29:24.135Z,28.92
2018-08-09T11:31:03.659Z,29.08
2018-08-09T11:32:03.640Z,28.57
2018-08-09T11:34:27.941Z,28.40
2018-08-09T11:35:27.927Z,28.65
2018-08-09T11:36:27.908Z,28.52
2018-08-09T11:37:27.892Z,28.24
2018-08-09T11:38:27.877Z,28.08
2018-08-09T11:39:27.659Z,28.08
2018-08-09T11:40:27.843Z,28.14
2018-08-09T11:41:27.827Z,28.09
2018-08-09T11:42:27.611Z,28.18
2018-08-09T11:43:27.591Z,28.23
2018-08-09T11:57:06.624Z,29.07
2018-08-09T11:58:06.593Z,29.18
2018-08-09T11:59:06.569Z,29.33
2018-08-09T12:00:06.352Z,29.32
2018-08-09T12:01:06.337Z,29.35
2018-08-09T12:02:06.518Z,29.15
2018-08-09T12:03:06.503Z,29.39
2018-08-09T12:04:06.498Z,29.52
2018-08-09T12:05:06.268Z,29.64
2018-08-09T12:06:06.251Z,29.76
2018-08-09T12:07:06.270Z,29.69
2018-08-09T12:08:06.221Z,29.48
2018-08-09T12:09:06.204Z,29.32
2018-08-09T12:10:06.189Z,29.12
2018-08-09T12:11:06.175Z,28.83
2018-08-09T12:12:06.160Z,28.83
2018-08-09T12:13:06.143Z,28.88
2018-08-09T12:14:06.126Z,29.07
2018-08-09T12:15:06.128Z,28.94
2018-08-09T12:16:06.088Z,29.21
2018-08-09T12:17:06.075Z,29.64
2018-08-09T12:18:06.258Z,30.51
2018-08-09T12:19:06.247Z,31.25
2018-08-09T12:20:06.023Z,31.62
2018-08-09T12:21:06.272Z,32.03
2018-08-09T12:23:30.526Z,32.68
2018-08-09T12:24:30.499Z,32.66
2018-08-09T12:25:30.482Z,32.66
2018-08-09T12:27:55.397Z,33.28
2018-08-09T12:30:22.618Z,32.77
2018-08-09T12:31:18.883Z,32.65
2018-08-09T12:32:19.072Z,32.71
2018-08-09T12:33:19.062Z,32.41
2018-08-09T12:34:18.852Z,32.53
2018-08-09T12:36:01.197Z,31.69
2018-08-09T12:37:00.984Z,31.85
2018-08-09T12:38:01.177Z,32.50
2018-08-09T12:39:43.325Z,32.65
2018-08-09T12:40:43.323Z,32.50
2018-08-09T12:55:04.375Z,31.62
2018-08-09T12:59:35.156Z,31.54
2018-08-09T13:00:35.142Z,31.76
2018-08-09T13:01:36.342Z,31.97
2018-08-09T13:02:35.114Z,31.68
2018-08-09T13:03:35.099Z,31.60
2018-08-09T13:04:35.086Z,31.64
2018-08-09T13:05:35.072Z,31.54
2018-08-09T13:06:34.855Z,31.69
2018-08-09T13:07:35.050Z,31.28
2018-08-09T13:08:35.032Z,31.40
2018-08-09T13:09:34.813Z,31.32
2018-08-09T13:10:34.811Z,30.97
2018-08-09T13:11:34.999Z,31.20
2018-08-09T13:12:34.774Z,31.42
2018-08-09T13:13:34.759Z,31.62
2018-08-09T13:14:34.945Z,31.76
2018-08-09T13:15:34.749Z,31.76
2018-08-09T13:16:34.715Z,31.76
2018-08-09T13:17:34.909Z,31.72
2018-08-09T13:18:34.690Z,31.45
2018-08-09T13:19:34.673Z,31.97
2018-08-09T13:20:34.658Z,32.24
2018-08-09T13:21:34.645Z,32.51
2018-08-09T13:22:34.630Z,32.41
2018-08-09T13:23:34.624Z,32.12
2018-08-09T13:24:34.610Z,32.03
2018-08-09T13:25:34.589Z,31.72
2018-08-09T13:26:34.593Z,31.53
2018-08-09T13:27:34.564Z,31.27
2018-08-09T13:28:34.549Z,31.27
2018-08-09T13:29:34.537Z,31.27
2018-08-09T13:30:34.530Z,31.49
2018-08-09T13:31:34.509Z,31.59
2018-08-09T13:32:34.697Z,31.59
2018-08-09T13:33:35.501Z,31.40
2018-08-09T13:35:16.831Z,31.52
2018-08-09T13:43:18.424Z,31.59
2018-08-09T13:44:18.387Z,31.34
2018-08-09T13:53:02.107Z,31.16
2018-08-09T13:54:02.091Z,30.98
2018-08-09T13:55:02.079Z,31.18
2018-08-09T13:56:01.857Z,31.20
2018-08-09T13:57:01.840Z,31.49
2018-08-09T13:58:02.029Z,31.67
2018-08-09T14:00:26.327Z,31.37
2018-08-09T14:01:26.113Z,31.25
2018-08-09T14:02:26.297Z,31.62
2018-08-09T14:03:26.280Z,31.69
2018-08-09T14:04:26.464Z,32.06
2018-08-09T14:05:26.256Z,32.50
2018-08-09T14:06:26.231Z,32.69
2018-08-09T14:08:51.748Z,33.03
2018-08-09T14:11:14.838Z,33.11
2018-08-09T14:12:14.827Z,33.05
2018-08-09T14:13:14.814Z,32.88
2018-08-09T14:14:14.797Z,32.87
2018-08-09T14:15:14.792Z,32.98
2018-08-09T14:16:14.577Z,32.78
2018-08-09T14:17:14.558Z,32.93
2018-08-09T14:18:14.746Z,33.02
2018-08-09T14:19:14.529Z,32.90
2018-08-09T14:20:56.879Z,32.93
2018-08-09T14:21:56.664Z,32.77
2018-08-09T14:22:56.651Z,32.36
2018-08-09T14:23:56.639Z,32.49
2018-08-09T14:24:56.762Z,32.40
2018-08-09T14:25:56.814Z,32.73
2018-08-09T14:26:56.812Z,32.77
2018-08-09T14:27:56.588Z,33.17
2018-08-09T14:28:56.575Z,32.98
2018-08-09T14:29:56.569Z,32.85
2018-08-09T14:53:25.870Z,32.76
2018-08-09T14:54:25.858Z,32.96
2018-08-09T14:55:25.639Z,33.18
2018-08-09T14:56:25.630Z,33.37
2018-08-09T14:57:25.615Z,33.62
2018-08-09T14:58:25.597Z,33.60
2018-08-09T14:59:25.592Z,33.52
2018-08-09T15:00:25.570Z,33.03
2018-08-09T15:01:25.558Z,32.49
2018-08-09T15:03:07.906Z,32.10
2018-08-09T15:04:07.894Z,31.47
2018-08-09T15:05:07.677Z,31.94
2018-08-09T15:06:07.675Z,32.03
2018-08-09T15:07:07.652Z,32.32
2018-08-09T15:08:07.638Z,32.21
2018-08-09T15:09:07.625Z,32.10
2018-08-09T15:10:07.612Z,32.21
2018-08-09T15:11:07.599Z,32.10
2018-08-09T15:12:07.588Z,31.87
2018-08-09T15:13:07.572Z,32.09
2018-08-09T15:14:07.561Z,32.24
2018-08-09T15:15:07.545Z,32.40
2018-08-09T15:16:52.519Z,32.36
2018-08-09T15:17:49.677Z,32.53
2018-08-09T15:18:49.865Z,32.22
2018-08-09T15:19:49.852Z,31.82
2018-08-09T15:20:49.634Z,31.85
2018-08-09T15:21:49.620Z,32.21
2018-08-09T15:22:49.645Z,32.53
2018-08-09T15:23:49.592Z,32.73
2018-08-09T15:24:49.578Z,32.53
2018-08-09T15:25:49.563Z,32.27
2018-08-09T15:26:49.551Z,32.61
2018-08-09T15:27:49.537Z,32.87
2018-08-09T15:28:49.521Z,32.87
2018-08-09T15:29:49.509Z,32.69